This is the latest recevied weather packets stored in our database for station/object KG4K-13. If no packets are shown the sender has not sent any weather packets the latest 10 day(s).
| Time | Temp. | Humidity | Pressure | Rain* | Wind** | Luminosity | Snow |
|---|---|---|---|---|---|---|---|
| 1777553720 | 13.89° C | 86% | 1008.9 hPa | 0 mm | - | 236 W/m² | - |
| 1777553120 | 13.89° C | 87% | 1008.9 hPa | 0 mm | - | 154 W/m² | - |
| 1777551920 | 13.33° C | 92% | 1008.6 hPa | 0 mm | - | 118 W/m² | - |
| 1777535744 | 10.56° C | 97% | 1007.6 hPa | 0 mm | - | 0 W/m² | - |
| 1777529726 | 10.56° C | 97% | 1007.6 hPa | 0 mm | - | 0 W/m² | - |
| 1777521928 | 11.67° C | 95% | 1008.4 hPa | 1.52 mm | - | 0 W/m² | - |
| 1777518929 | 11.67° C | 94% | 1008.5 hPa | 0.25 mm | - | 0 W/m² | - |
| 1777517716 | 11.67° C | 94% | 1008.7 hPa | 0 mm | - | 0 W/m² | - |
| 1777511117 | 12.22° C | 87% | 1008.8 hPa | 0 mm | - | 0 W/m² | - |
| 1777510517 | 12.22° C | 89% | 1008.5 hPa | 0 mm | - | 0 W/m² | - |
| 1777509318 | 12.22° C | 93% | 1008.8 hPa | 7.62 mm | - | 0 W/m² | - |
| 1777506919 | 12.78° C | 93% | 1008.8 hPa | 14.48 mm | - | 1 W/m² | - |
| 1777505719 | 13.33° C | 93% | 1009.3 hPa | 11.68 mm | - | 1 W/m² | - |
| 1777503919 | 13.89° C | 92% | 1009.1 hPa | 10.92 mm | - | 22 W/m² | - |
| 1777503320 | 13.89° C | 91% | 1009.3 hPa | 10.92 mm | - | 6 W/m² | - |
| 1777502120 | 13.89° C | 89% | 1009.5 hPa | 6.35 mm | - | 5 W/m² | - |
| 1777501520 | 14.44° C | 87% | 1009.5 hPa | 4.06 mm | - | 5 W/m² | - |
| 1777495522 | 14.44° C | 90% | 1009.6 hPa | 4.83 mm | - | 51 W/m² | - |
| 1777491317 | 15.56° C | 80% | 1010.8 hPa | 0.25 mm | - | 96 W/m² | - |
| 1777482925 | 16.67° C | 74% | 1013.4 hPa | 0 mm | - | 207 W/m² | - |
| 1777482325 | 16.11° C | 75% | 1013.6 hPa | 0 mm | - | 241 W/m² | - |
| 1777480526 | 15.56° C | 76% | 1014.1 hPa | 0 mm | - | 213 W/m² | - |
| 1777479926 | 15.56° C | 76% | 1014.1 hPa | 0 mm | - | 202 W/m² | - |
| 1777475727 | 15° C | 77% | 1015.2 hPa | 0 mm | - | 152 W/m² | - |
| 1777469729 | 14.44° C | 75% | 1015.3 hPa | 0 mm | - | 133 W/m² | - |
* Rain latest hour (hover to see other rain measurements)
** Current wind speed in m/s (hover to see current wind gust speed)